sensor_id;sensor_type;location;lat;lon;timestamp;pressure;altitude;pressure_sealevel;temperature
18713;BMP280;9485;49.386;8.674;2023-04-25T00:03:48;99829.75;;;12.24
18713;BMP280;9485;49.386;8.674;2023-04-25T00:09:08;99835.44;;;12.19
18713;BMP280;9485;49.386;8.674;2023-04-25T00:14:31;99827.47;;;12.17
18713;BMP280;9485;49.386;8.674;2023-04-25T00:19:53;99833.66;;;12.16
18713;BMP280;9485;49.386;8.674;2023-04-25T00:25:14;99829.53;;;12.17
18713;BMP280;9485;49.386;8.674;2023-04-25T00:30:36;99828.25;;;12.18
18713;BMP280;9485;49.386;8.674;2023-04-25T00:35:56;99822.06;;;12.19
18713;BMP280;9485;49.386;8.674;2023-04-25T00:41:17;99813.56;;;12.19
18713;BMP280;9485;49.386;8.674;2023-04-25T00:46:40;99812.81;;;12.19
18713;BMP280;9485;49.386;8.674;2023-04-25T00:52:02;99810.72;;;12.19
18713;BMP280;9485;49.386;8.674;2023-04-25T00:57:23;99799.69;;;12.16
18713;BMP280;9485;49.386;8.674;2023-04-25T01:02:46;99791.47;;;12.12
18713;BMP280;9485;49.386;8.674;2023-04-25T01:08:07;99796.66;;;12.08
18713;BMP280;9485;49.386;8.674;2023-04-25T01:13:28;99791.75;;;12.03
18713;BMP280;9485;49.386;8.674;2023-04-25T01:18:51;99786.38;;;12.00
18713;BMP280;9485;49.386;8.674;2023-04-25T01:24:13;99788.19;;;11.98
18713;BMP280;9485;49.386;8.674;2023-04-25T01:29:35;99796.41;;;11.96
18713;BMP280;9485;49.386;8.674;2023-04-25T01:34:56;99788.72;;;11.91
18713;BMP280;9485;49.386;8.674;2023-04-25T01:40:20;99781.81;;;11.86
18713;BMP280;9485;49.386;8.674;2023-04-25T01:45:42;99782.06;;;11.83
18713;BMP280;9485;49.386;8.674;2023-04-25T01:51:04;99786.72;;;11.80
18713;BMP280;9485;49.386;8.674;2023-04-25T01:56:30;99780.03;;;11.78
18713;BMP280;9485;49.386;8.674;2023-04-25T02:01:51;99788.53;;;11.72
18713;BMP280;9485;49.386;8.674;2023-04-25T02:07:18;99791.13;;;11.70
18713;BMP280;9485;49.386;8.674;2023-04-25T02:12:46;99782.41;;;11.57
18713;BMP280;9485;49.386;8.674;2023-04-25T02:18:15;99794.00;;;11.48
18713;BMP280;9485;49.386;8.674;2023-04-25T02:23:36;99791.16;;;11.43
18713;BMP280;9485;49.386;8.674;2023-04-25T02:28:58;99792.44;;;11.42
18713;BMP280;9485;49.386;8.674;2023-04-25T02:34:20;99795.53;;;11.44
18713;BMP280;9485;49.386;8.674;2023-04-25T02:39:41;99792.97;;;11.46
18713;BMP280;9485;49.386;8.674;2023-04-25T02:45:04;99791.44;;;11.39
18713;BMP280;9485;49.386;8.674;2023-04-25T02:50:25;99791.44;;;11.34
18713;BMP280;9485;49.386;8.674;2023-04-25T02:55:45;99791.47;;;11.28
18713;BMP280;9485;49.386;8.674;2023-04-25T03:01:07;99781.94;;;11.26
18713;BMP280;9485;49.386;8.674;2023-04-25T03:06:27;99782.47;;;11.24
18713;BMP280;9485;49.386;8.674;2023-04-25T03:11:48;99784.78;;;11.21
18713;BMP280;9485;49.386;8.674;2023-04-25T03:17:09;99771.69;;;11.18
18713;BMP280;9485;49.386;8.674;2023-04-25T03:22:30;99761.91;;;11.19
18713;BMP280;9485;49.386;8.674;2023-04-25T03:27:51;99771.69;;;11.18
18713;BMP280;9485;49.386;8.674;2023-04-25T03:33:13;99774.50;;;11.18
18713;BMP280;9485;49.386;8.674;2023-04-25T03:38:34;99769.88;;;11.20
18713;BMP280;9485;49.386;8.674;2023-04-25T03:43:55;99760.38;;;11.23
18713;BMP280;9485;49.386;8.674;2023-04-25T03:49:17;99771.16;;;11.19
18713;BMP280;9485;49.386;8.674;2023-04-25T03:54:48;99777.84;;;11.16
18713;BMP280;9485;49.386;8.674;2023-04-25T04:00:14;99775.78;;;11.17
18713;BMP280;9485;49.386;8.674;2023-04-25T04:05:36;99772.72;;;11.15
18713;BMP280;9485;49.386;8.674;2023-04-25T04:11:00;99778.13;;;11.13
18713;BMP280;9485;49.386;8.674;2023-04-25T04:16:21;99770.41;;;11.13
18713;BMP280;9485;49.386;8.674;2023-04-25T04:21:43;99779.13;;;11.15
18713;BMP280;9485;49.386;8.674;2023-04-25T04:27:04;99786.06;;;11.20
18713;BMP280;9485;49.386;8.674;2023-04-25T04:32:38;99787.63;;;11.21
18713;BMP280;9485;49.386;8.674;2023-04-25T04:38:00;99790.94;;;11.19
18713;BMP280;9485;49.386;8.674;2023-04-25T04:43:26;99800.47;;;11.16
18713;BMP280;9485;49.386;8.674;2023-04-25T04:49:05;99789.16;;;11.11
18713;BMP280;9485;49.386;8.674;2023-04-25T04:54:56;99805.84;;;11.25
18713;BMP280;9485;49.386;8.674;2023-04-25T05:00:33;99814.31;;;11.30
18713;BMP280;9485;49.386;8.674;2023-04-25T05:06:06;99816.38;;;11.35
18713;BMP280;9485;49.386;8.674;2023-04-25T05:11:45;99820.97;;;11.38
18713;BMP280;9485;49.386;8.674;2023-04-25T05:17:23;99826.63;;;11.44
18713;BMP280;9485;49.386;8.674;2023-04-25T05:23:07;99825.84;;;11.49
18713;BMP280;9485;49.386;8.674;2023-04-25T05:28:48;99825.84;;;11.49
18713;BMP280;9485;49.386;8.674;2023-04-25T05:34:29;99816.84;;;11.50
18713;BMP280;9485;49.386;8.674;2023-04-25T05:39:53;99818.91;;;11.50
18713;BMP280;9485;49.386;8.674;2023-04-25T05:45:45;99814.00;;;11.50
18713;BMP280;9485;49.386;8.674;2023-04-25T05:51:24;99817.09;;;11.69
18713;BMP280;9485;49.386;8.674;2023-04-25T05:57:20;99824.78;;;11.79
18713;BMP280;9485;49.386;8.674;2023-04-25T06:02:43;99830.91;;;11.89
18713;BMP280;9485;49.386;8.674;2023-04-25T06:08:06;99840.41;;;11.97
18713;BMP280;9485;49.386;8.674;2023-04-25T06:13:27;99839.38;;;12.05
18713;BMP280;9485;49.386;8.674;2023-04-25T06:18:50;99850.41;;;12.08
18713;BMP280;9485;49.386;8.674;2023-04-25T06:24:11;99850.41;;;12.08
18713;BMP280;9485;49.386;8.674;2023-04-25T06:29:33;99849.34;;;12.11
18713;BMP280;9485;49.386;8.674;2023-04-25T06:34:56;99832.19;;;11.98
18713;BMP280;9485;49.386;8.674;2023-04-25T06:40:17;99842.16;;;12.10
18713;BMP280;9485;49.386;8.674;2023-04-25T06:45:38;99844.94;;;12.21
18713;BMP280;9485;49.386;8.674;2023-04-25T06:51:04;99847.97;;;12.34
18713;BMP280;9485;49.386;8.674;2023-04-25T06:56:25;99860.75;;;12.52
18713;BMP280;9485;49.386;8.674;2023-04-25T07:01:53;99869.97;;;12.63
18713;BMP280;9485;49.386;8.674;2023-04-25T07:07:19;99860.66;;;12.68
18713;BMP280;9485;49.386;8.674;2023-04-25T07:12:47;99863.25;;;12.66
18713;BMP280;9485;49.386;8.674;2023-04-25T07:18:08;99862.50;;;12.60
18713;BMP280;9485;49.386;8.674;2023-04-25T07:23:30;99855.38;;;12.48
18713;BMP280;9485;49.386;8.674;2023-04-25T07:28:54;99866.41;;;12.57
18713;BMP280;9485;49.386;8.674;2023-04-25T07:34:15;99866.97;;;12.50
18713;BMP280;9485;49.386;8.674;2023-04-25T07:39:38;99879.78;;;12.51
18713;BMP280;9485;49.386;8.674;2023-04-25T07:45:00;99888.53;;;12.59
18713;BMP280;9485;49.386;8.674;2023-04-25T07:50:22;99896.44;;;12.71
18713;BMP280;9485;49.386;8.674;2023-04-25T07:55:45;99898.97;;;12.80
18713;BMP280;9485;49.386;8.674;2023-04-25T08:01:11;99895.34;;;12.85
18713;BMP280;9485;49.386;8.674;2023-04-25T08:06:44;99908.72;;;12.84
18713;BMP280;9485;49.386;8.674;2023-04-25T08:12:11;99917.50;;;12.81
18713;BMP280;9485;49.386;8.674;2023-04-25T08:17:34;99931.38;;;12.84
18713;BMP280;9485;49.386;8.674;2023-04-25T08:22:55;99946.09;;;12.83
18713;BMP280;9485;49.386;8.674;2023-04-25T08:28:26;99949.13;;;12.96
18713;BMP280;9485;49.386;8.674;2023-04-25T08:33:48;99970.59;;;13.26
18713;BMP280;9485;49.386;8.674;2023-04-25T08:39:16;99975.72;;;13.62
18713;BMP280;9485;49.386;8.674;2023-04-25T08:44:56;99989.44;;;13.88
18713;BMP280;9485;49.386;8.674;2023-04-25T08:50:24;99987.69;;;14.14
18713;BMP280;9485;49.386;8.674;2023-04-25T08:55:46;99993.41;;;14.80
18713;BMP280;9485;49.386;8.674;2023-04-25T09:01:11;100000.00;;;15.30
18713;BMP280;9485;49.386;8.674;2023-04-25T09:06:43;100002.03;;;15.85
18713;BMP280;9485;49.386;8.674;2023-04-25T09:12:05;100009.41;;;16.06
18713;BMP280;9485;49.386;8.674;2023-04-25T09:17:28;100020.22;;;16.39
18713;BMP280;9485;49.386;8.674;2023-04-25T09:23:02;100024.19;;;17.01
18713;BMP280;9485;49.386;8.674;2023-04-25T09:28:26;100027.16;;;18.21
18713;BMP280;9485;49.386;8.674;2023-04-25T09:33:48;100042.53;;;19.14
18713;BMP280;9485;49.386;8.674;2023-04-25T09:39:13;100032.44;;;19.63
18713;BMP280;9485;49.386;8.674;2023-04-25T09:44:46;100058.22;;;20.88
18713;BMP280;9485;49.386;8.674;2023-04-25T09:50:16;100063.28;;;21.34
18713;BMP280;9485;49.386;8.674;2023-04-25T09:55:44;100073.94;;;21.49
18713;BMP280;9485;49.386;8.674;2023-04-25T10:01:08;100080.50;;;21.34
18713;BMP280;9485;49.386;8.674;2023-04-25T10:06:43;100087.22;;;21.37
18713;BMP280;9485;49.386;8.674;2023-04-25T10:12:05;100087.22;;;21.37
18713;BMP280;9485;49.386;8.674;2023-04-25T10:17:27;100087.81;;;21.28
18713;BMP280;9485;49.386;8.674;2023-04-25T10:22:55;100093.78;;;21.08
18713;BMP280;9485;49.386;8.674;2023-04-25T10:28:20;100094.25;;;21.51
18713;BMP280;9485;49.386;8.674;2023-04-25T10:33:43;100094.56;;;21.77
18713;BMP280;9485;49.386;8.674;2023-04-25T10:39:06;100102.31;;;21.45
18713;BMP280;9485;49.386;8.674;2023-04-25T10:44:29;100111.22;;;21.71
18713;BMP280;9485;49.386;8.674;2023-04-25T10:49:51;100112.22;;;21.51
18713;BMP280;9485;49.386;8.674;2023-04-25T10:55:13;100109.19;;;21.42
18713;BMP280;9485;49.386;8.674;2023-04-25T11:00:35;100103.69;;;21.91
18713;BMP280;9485;49.386;8.674;2023-04-25T11:06:02;100103.88;;;21.85
18713;BMP280;9485;49.386;8.674;2023-04-25T11:11:24;100115.25;;;20.92
18713;BMP280;9485;49.386;8.674;2023-04-25T11:16:45;100119.22;;;19.86
18713;BMP280;9485;49.386;8.674;2023-04-25T11:22:06;100116.22;;;18.93
18713;BMP280;9485;49.386;8.674;2023-04-25T11:27:28;100109.69;;;18.45
18713;BMP280;9485;49.386;8.674;2023-04-25T11:32:50;100114.75;;;18.18
18713;BMP280;9485;49.386;8.674;2023-04-25T11:38:11;100112.66;;;17.86
18713;BMP280;9485;49.386;8.674;2023-04-25T11:43:33;100110.56;;;17.40
18713;BMP280;9485;49.386;8.674;2023-04-25T11:48:56;100122.84;;;16.96
18713;BMP280;9485;49.386;8.674;2023-04-25T11:54:17;100129.63;;;16.80
18713;BMP280;9485;49.386;8.674;2023-04-25T11:59:39;100141.38;;;16.90
18713;BMP280;9485;49.386;8.674;2023-04-25T12:05:00;100145.66;;;17.09
18713;BMP280;9485;49.386;8.674;2023-04-25T12:10:24;100140.38;;;17.26
18713;BMP280;9485;49.386;8.674;2023-04-25T12:15:47;100147.16;;;17.75
18713;BMP280;9485;49.386;8.674;2023-04-25T12:21:09;100142.00;;;18.19
18713;BMP280;9485;49.386;8.674;2023-04-25T12:26:49;100144.75;;;18.45
18713;BMP280;9485;49.386;8.674;2023-04-25T12:32:12;100152.28;;;18.56
18713;BMP280;9485;49.386;8.674;2023-04-25T12:37:33;100160.19;;;18.42
18713;BMP280;9485;49.386;8.674;2023-04-25T12:42:54;100158.03;;;18.22
18713;BMP280;9485;49.386;8.674;2023-04-25T12:48:16;100159.31;;;18.01
18713;BMP280;9485;49.386;8.674;2023-04-25T12:53:37;100163.84;;;17.84
18713;BMP280;9485;49.386;8.674;2023-04-25T12:59:00;100166.16;;;17.85
18713;BMP280;9485;49.386;8.674;2023-04-25T13:04:23;100165.59;;;18.33
18713;BMP280;9485;49.386;8.674;2023-04-25T13:09:44;100171.19;;;18.99
18713;BMP280;9485;49.386;8.674;2023-04-25T13:15:06;100175.16;;;19.45
18713;BMP280;9485;49.386;8.674;2023-04-25T13:20:29;100177.78;;;19.35
18713;BMP280;9485;49.386;8.674;2023-04-25T13:25:50;100171.41;;;19.01
18713;BMP280;9485;49.386;8.674;2023-04-25T13:31:11;100171.88;;;18.72
18713;BMP280;9485;49.386;8.674;2023-04-25T13:36:33;100179.09;;;18.66
18713;BMP280;9485;49.386;8.674;2023-04-25T13:41:53;100174.47;;;18.83
18713;BMP280;9485;49.386;8.674;2023-04-25T13:47:15;100188.91;;;18.78
18713;BMP280;9485;49.386;8.674;2023-04-25T13:52:37;100180.88;;;18.56
18713;BMP280;9485;49.386;8.674;2023-04-25T13:57:58;100179.06;;;18.45
18713;BMP280;9485;49.386;8.674;2023-04-25T14:03:19;100183.97;;;18.58
18713;BMP280;9485;49.386;8.674;2023-04-25T14:08:41;100186.72;;;18.30
18713;BMP280;9485;49.386;8.674;2023-04-25T14:14:02;100195.44;;;18.11
18713;BMP280;9485;49.386;8.674;2023-04-25T14:19:23;100193.81;;;18.03
18713;BMP280;9485;49.386;8.674;2023-04-25T14:24:46;100196.16;;;17.92
18713;BMP280;9485;49.386;8.674;2023-04-25T14:30:08;100192.09;;;17.87
18713;BMP280;9485;49.386;8.674;2023-04-25T14:35:31;100198.13;;;17.84
18713;BMP280;9485;49.386;8.674;2023-04-25T14:40:53;100193.97;;;17.72
18713;BMP280;9485;49.386;8.674;2023-04-25T14:46:14;100206.25;;;17.67
18713;BMP280;9485;49.386;8.674;2023-04-25T14:51:35;100209.25;;;17.61
18713;BMP280;9485;49.386;8.674;2023-04-25T14:56:57;100211.66;;;17.44
18713;BMP280;9485;49.386;8.674;2023-04-25T15:02:18;100215.13;;;17.12
18713;BMP280;9485;49.386;8.674;2023-04-25T15:07:39;100213.94;;;16.76
18713;BMP280;9485;49.386;8.674;2023-04-25T15:13:03;100206.22;;;16.58
18713;BMP280;9485;49.386;8.674;2023-04-25T15:18:24;100201.81;;;16.57
18713;BMP280;9485;49.386;8.674;2023-04-25T15:23:45;100207.66;;;16.64
18713;BMP280;9485;49.386;8.674;2023-04-25T15:29:07;100211.13;;;16.57
18713;BMP280;9485;49.386;8.674;2023-04-25T15:34:28;100218.44;;;16.53
18713;BMP280;9485;49.386;8.674;2023-04-25T15:40:01;100219.00;;;16.52
18713;BMP280;9485;49.386;8.674;2023-04-25T15:45:27;100219.88;;;16.47
18713;BMP280;9485;49.386;8.674;2023-04-25T15:50:48;100231.31;;;16.59
18713;BMP280;9485;49.386;8.674;2023-04-25T15:56:08;100248.53;;;16.67
18713;BMP280;9485;49.386;8.674;2023-04-25T16:01:32;100240.53;;;16.65
18713;BMP280;9485;49.386;8.674;2023-04-25T16:06:53;100243.34;;;16.53
18713;BMP280;9485;49.386;8.674;2023-04-25T16:12:15;100233.81;;;16.32
18713;BMP280;9485;49.386;8.674;2023-04-25T16:17:37;100240.41;;;16.21
18713;BMP280;9485;49.386;8.674;2023-04-25T16:22:58;100255.34;;;16.09
18713;BMP280;9485;49.386;8.674;2023-04-25T16:28:20;100250.09;;;15.94
18713;BMP280;9485;49.386;8.674;2023-04-25T16:33:42;100251.09;;;15.78
18713;BMP280;9485;49.386;8.674;2023-04-25T16:39:03;100251.44;;;15.70
18713;BMP280;9485;49.386;8.674;2023-04-25T16:44:27;100265.56;;;15.57
18713;BMP280;9485;49.386;8.674;2023-04-25T16:49:49;100258.50;;;15.39
18713;BMP280;9485;49.386;8.674;2023-04-25T16:55:10;100272.38;;;15.24
18713;BMP280;9485;49.386;8.674;2023-04-25T17:00:31;100269.84;;;15.15
18713;BMP280;9485;49.386;8.674;2023-04-25T17:05:55;100275.06;;;15.11
18713;BMP280;9485;49.386;8.674;2023-04-25T17:11:18;100281.31;;;15.04
18713;BMP280;9485;49.386;8.674;2023-04-25T17:16:39;100282.16;;;15.00
18713;BMP280;9485;49.386;8.674;2023-04-25T17:22:02;100289.97;;;14.94
18713;BMP280;9485;49.386;8.674;2023-04-25T17:27:22;100280.75;;;14.82
18713;BMP280;9485;49.386;8.674;2023-04-25T17:32:43;100297.56;;;14.75
18713;BMP280;9485;49.386;8.674;2023-04-25T17:38:06;100301.78;;;14.68
18713;BMP280;9485;49.386;8.674;2023-04-25T17:43:27;100301.84;;;14.57
18713;BMP280;9485;49.386;8.674;2023-04-25T17:48:48;100309.09;;;14.53
18713;BMP280;9485;49.386;8.674;2023-04-25T17:54:11;100304.53;;;14.39
18713;BMP280;9485;49.386;8.674;2023-04-25T17:59:31;100310.75;;;14.32
18713;BMP280;9485;49.386;8.674;2023-04-25T18:04:52;100314.97;;;14.20
18713;BMP280;9485;49.386;8.674;2023-04-25T18:10:15;100325.84;;;14.11
18713;BMP280;9485;49.386;8.674;2023-04-25T18:15:36;100343.16;;;14.02
18713;BMP280;9485;49.386;8.674;2023-04-25T18:20:57;100338.56;;;13.88
18713;BMP280;9485;49.386;8.674;2023-04-25T18:26:19;100357.13;;;13.83
18713;BMP280;9485;49.386;8.674;2023-04-25T18:31:41;100362.84;;;13.72
18713;BMP280;9485;49.386;8.674;2023-04-25T18:37:02;100363.91;;;13.58
18713;BMP280;9485;49.386;8.674;2023-04-25T18:42:24;100379.66;;;13.59
18713;BMP280;9485;49.386;8.674;2023-04-25T18:47:44;100381.72;;;13.53
18713;BMP280;9485;49.386;8.674;2023-04-25T18:53:05;100387.91;;;13.47
18713;BMP280;9485;49.386;8.674;2023-04-25T18:58:27;100398.25;;;13.39
18713;BMP280;9485;49.386;8.674;2023-04-25T19:03:48;100397.72;;;13.29
18713;BMP280;9485;49.386;8.674;2023-04-25T19:09:14;100410.06;;;13.21
18713;BMP280;9485;49.386;8.674;2023-04-25T19:14:36;100405.16;;;13.10
18713;BMP280;9485;49.386;8.674;2023-04-25T19:19:56;100405.94;;;13.00
18713;BMP280;9485;49.386;8.674;2023-04-25T19:25:17;100395.81;;;12.82
18713;BMP280;9485;49.386;8.674;2023-04-25T19:30:39;100406.91;;;12.75
18713;BMP280;9485;49.386;8.674;2023-04-25T19:35:59;100428.00;;;12.63
18713;BMP280;9485;49.386;8.674;2023-04-25T19:41:20;100426.38;;;12.51
18713;BMP280;9485;49.386;8.674;2023-04-25T19:46:42;100426.34;;;12.40
18713;BMP280;9485;49.386;8.674;2023-04-25T19:52:04;100430.19;;;12.32
18713;BMP280;9485;49.386;8.674;2023-04-25T19:57:25;100447.66;;;12.25
18713;BMP280;9485;49.386;8.674;2023-04-25T20:02:51;100460.53;;;12.26
18713;BMP280;9485;49.386;8.674;2023-04-25T20:08:11;100449.69;;;12.24
18713;BMP280;9485;49.386;8.674;2023-04-25T20:13:32;100467.97;;;12.23
18713;BMP280;9485;49.386;8.674;2023-04-25T20:18:54;100459.22;;;12.21
18713;BMP280;9485;49.386;8.674;2023-04-25T20:24:15;100460.97;;;12.13
18713;BMP280;9485;49.386;8.674;2023-04-25T20:29:36;100469.13;;;12.06
18713;BMP280;9485;49.386;8.674;2023-04-25T20:34:58;100464.47;;;11.98
18713;BMP280;9485;49.386;8.674;2023-04-25T20:40:19;100473.69;;;11.93
18713;BMP280;9485;49.386;8.674;2023-04-25T20:45:40;100456.56;;;11.71
18713;BMP280;9485;49.386;8.674;2023-04-25T20:51:02;100469.66;;;11.68
18713;BMP280;9485;49.386;8.674;2023-04-25T20:56:25;100472.13;;;11.55
18713;BMP280;9485;49.386;8.674;2023-04-25T21:01:46;100473.25;;;11.38
18713;BMP280;9485;49.386;8.674;2023-04-25T21:07:08;100483.94;;;11.28
18713;BMP280;9485;49.386;8.674;2023-04-25T21:12:31;100485.06;;;11.11
18713;BMP280;9485;49.386;8.674;2023-04-25T21:17:52;100490.25;;;10.93
18713;BMP280;9485;49.386;8.674;2023-04-25T21:23:13;100490.41;;;10.84
18713;BMP280;9485;49.386;8.674;2023-04-25T21:28:35;100488.22;;;10.73
18713;BMP280;9485;49.386;8.674;2023-04-25T21:33:56;100497.88;;;10.67
18713;BMP280;9485;49.386;8.674;2023-04-25T21:39:17;100494.72;;;10.59
18713;BMP280;9485;49.386;8.674;2023-04-25T21:44:38;100493.59;;;10.51
18713;BMP280;9485;49.386;8.674;2023-04-25T21:49:59;100491.69;;;10.43
18713;BMP280;9485;49.386;8.674;2023-04-25T21:55:21;100505.19;;;10.34
18713;BMP280;9485;49.386;8.674;2023-04-25T22:00:42;100512.22;;;10.24
18713;BMP280;9485;49.386;8.674;2023-04-25T22:06:02;100516.41;;;10.14
18713;BMP280;9485;49.386;8.674;2023-04-25T22:11:24;100517.91;;;10.09
18713;BMP280;9485;49.386;8.674;2023-04-25T22:16:47;100527.34;;;10.06
18713;BMP280;9485;49.386;8.674;2023-04-25T22:22:07;100537.56;;;10.04
18713;BMP280;9485;49.386;8.674;2023-04-25T22:27:29;100534.25;;;10.05
18713;BMP280;9485;49.386;8.674;2023-04-25T22:32:50;100536.56;;;10.07
18713;BMP280;9485;49.386;8.674;2023-04-25T22:38:11;100536.88;;;10.09
18713;BMP280;9485;49.386;8.674;2023-04-25T22:43:33;100547.66;;;10.10
18713;BMP280;9485;49.386;8.674;2023-04-25T22:48:53;100535.59;;;10.10
18713;BMP280;9485;49.386;8.674;2023-04-25T22:54:14;100550.22;;;10.08
18713;BMP280;9485;49.386;8.674;2023-04-25T22:59:36;100550.88;;;10.03
18713;BMP280;9485;49.386;8.674;2023-04-25T23:04:56;100549.94;;;9.92
18713;BMP280;9485;49.386;8.674;2023-04-25T23:10:18;100554.41;;;9.84
18713;BMP280;9485;49.386;8.674;2023-04-25T23:15:40;100547.81;;;9.72
18713;BMP280;9485;49.386;8.674;2023-04-25T23:21:01;100559.38;;;9.60
18713;BMP280;9485;49.386;8.674;2023-04-25T23:26:22;100560.75;;;9.50
18713;BMP280;9485;49.386;8.674;2023-04-25T23:31:44;100554.88;;;9.39
18713;BMP280;9485;49.386;8.674;2023-04-25T23:37:05;100551.38;;;9.30
18713;BMP280;9485;49.386;8.674;2023-04-25T23:42:26;100558.66;;;9.22
18713;BMP280;9485;49.386;8.674;2023-04-25T23:47:48;100553.28;;;9.09
18713;BMP280;9485;49.386;8.674;2023-04-25T23:53:09;100568.34;;;9.06
18713;BMP280;9485;49.386;8.674;2023-04-25T23:58:29;100560.88;;;9.03
